sensor_id;sensor_type;location;lat;lon;timestamp;pressure;altitude;pressure_sealevel;temperature;humidity
75414;BME280;64758;52.122;5.404;2022-11-02T00:00:30;101546.19;;;11.81;96.70
75414;BME280;64758;52.122;5.404;2022-11-02T00:02:58;101537.41;;;11.80;96.38
75414;BME280;64758;52.122;5.404;2022-11-02T00:05:25;101533.88;;;11.80;96.51
75414;BME280;64758;52.122;5.404;2022-11-02T00:07:53;101540.22;;;11.79;96.12
75414;BME280;64758;52.122;5.404;2022-11-02T00:10:21;101546.19;;;11.81;95.49
75414;BME280;64758;52.122;5.404;2022-11-02T00:12:49;101553.00;;;11.83;95.20
75414;BME280;64758;52.122;5.404;2022-11-02T00:15:16;101545.69;;;11.85;95.67
75414;BME280;64758;52.122;5.404;2022-11-02T00:17:48;101540.72;;;11.82;95.13
75414;BME280;64758;52.122;5.404;2022-11-02T00:20:17;101537.50;;;11.87;94.94
75414;BME280;64758;52.122;5.404;2022-11-02T00:22:45;101540.81;;;11.89;94.76
75414;BME280;64758;52.122;5.404;2022-11-02T00:25:15;101536.63;;;11.94;94.81
75414;BME280;64758;52.122;5.404;2022-11-02T00:27:43;101537.09;;;11.98;94.16
75414;BME280;64758;52.122;5.404;2022-11-02T00:30:09;101535.72;;;12.02;94.20
75414;BME280;64758;52.122;5.404;2022-11-02T00:32:36;101530.22;;;12.03;93.81
75414;BME280;64758;52.122;5.404;2022-11-02T00:35:02;101524.00;;;12.11;93.50
75414;BME280;64758;52.122;5.404;2022-11-02T00:37:29;101529.31;;;12.11;93.01
75414;BME280;64758;52.122;5.404;2022-11-02T00:39:55;101523.28;;;12.17;92.28
75414;BME280;64758;52.122;5.404;2022-11-02T00:42:22;101524.13;;;12.17;92.51
75414;BME280;64758;52.122;5.404;2022-11-02T00:44:49;101533.78;;;12.18;91.87
75414;BME280;64758;52.122;5.404;2022-11-02T00:47:15;101528.00;;;12.29;90.72
75414;BME280;64758;52.122;5.404;2022-11-02T00:49:41;101539.03;;;12.26;90.87
75414;BME280;64758;52.122;5.404;2022-11-02T00:52:08;101531.22;;;12.25;90.46
75414;BME280;64758;52.122;5.404;2022-11-02T00:54:34;101533.22;;;12.23;90.38
75414;BME280;64758;52.122;5.404;2022-11-02T00:57:01;101531.94;;;12.19;89.87
75414;BME280;64758;52.122;5.404;2022-11-02T00:59:28;101527.81;;;12.16;90.26
75414;BME280;64758;52.122;5.404;2022-11-02T01:01:54;101533.13;;;12.16;89.76
75414;BME280;64758;52.122;5.404;2022-11-02T01:04:21;101516.94;;;12.18;89.57
75414;BME280;64758;52.122;5.404;2022-11-02T01:06:47;101526.06;;;12.23;89.11
75414;BME280;64758;52.122;5.404;2022-11-02T01:09:14;101558.69;;;12.25;89.23
75414;BME280;64758;52.122;5.404;2022-11-02T01:11:42;101547.91;;;12.19;90.61
75414;BME280;64758;52.122;5.404;2022-11-02T01:14:09;101584.72;;;11.93;91.12
75414;BME280;64758;52.122;5.404;2022-11-02T01:16:37;101595.34;;;11.70;91.99
75414;BME280;64758;52.122;5.404;2022-11-02T01:19:04;101585.59;;;11.55;92.22
75414;BME280;64758;52.122;5.404;2022-11-02T01:21:31;101575.03;;;11.39;90.45
75414;BME280;64758;52.122;5.404;2022-11-02T01:23:57;101578.41;;;11.25;91.75
75414;BME280;64758;52.122;5.404;2022-11-02T01:26:24;101575.63;;;11.11;89.17
75414;BME280;64758;52.122;5.404;2022-11-02T01:28:52;101578.50;;;11.01;89.55
75414;BME280;64758;52.122;5.404;2022-11-02T01:31:19;101572.88;;;10.88;90.31
75414;BME280;64758;52.122;5.404;2022-11-02T01:33:46;101559.63;;;10.80;89.87
75414;BME280;64758;52.122;5.404;2022-11-02T01:36:15;101579.91;;;10.73;90.26
75414;BME280;64758;52.122;5.404;2022-11-02T01:38:42;101571.41;;;10.70;89.37
75414;BME280;64758;52.122;5.404;2022-11-02T01:41:10;101577.06;;;10.67;90.56
75414;BME280;64758;52.122;5.404;2022-11-02T01:43:39;101582.25;;;10.60;90.46
75414;BME280;64758;52.122;5.404;2022-11-02T01:48:46;101566.47;;;10.43;91.86
75414;BME280;64758;52.122;5.404;2022-11-02T01:51:34;101559.84;;;10.31;91.35
75414;BME280;64758;52.122;5.404;2022-11-02T01:54:11;101554.38;;;10.24;92.32
75414;BME280;64758;52.122;5.404;2022-11-02T01:56:39;101547.59;;;10.14;92.37
75414;BME280;64758;52.122;5.404;2022-11-02T01:59:12;101558.88;;;10.08;93.14
75414;BME280;64758;52.122;5.404;2022-11-02T02:01:39;101547.56;;;9.98;93.18
75414;BME280;64758;52.122;5.404;2022-11-02T02:04:07;101554.00;;;9.96;92.64
75414;BME280;64758;52.122;5.404;2022-11-02T02:06:33;101550.00;;;9.92;92.89
75414;BME280;64758;52.122;5.404;2022-11-02T02:09:02;101551.00;;;9.91;93.01
75414;BME280;64758;52.122;5.404;2022-11-02T02:11:32;101543.56;;;9.86;93.35
75414;BME280;64758;52.122;5.404;2022-11-02T02:14:06;101546.34;;;9.85;92.81
75414;BME280;64758;52.122;5.404;2022-11-02T02:16:59;101544.03;;;9.82;92.61
75414;BME280;64758;52.122;5.404;2022-11-02T02:28:40;101547.66;;;9.73;93.60
75414;BME280;64758;52.122;5.404;2022-11-02T02:31:23;101550.19;;;9.74;93.12
75414;BME280;64758;52.122;5.404;2022-11-02T02:34:05;101559.94;;;9.74;93.64
75414;BME280;64758;52.122;5.404;2022-11-02T02:37:06;101562.94;;;9.79;93.76
75414;BME280;64758;52.122;5.404;2022-11-02T02:42:36;101564.94;;;9.85;94.43
75414;BME280;64758;52.122;5.404;2022-11-02T02:48:19;101572.56;;;9.96;94.26
75414;BME280;64758;52.122;5.404;2022-11-02T02:50:51;101554.84;;;9.96;94.09
75414;BME280;64758;52.122;5.404;2022-11-02T02:53:27;101557.03;;;10.01;94.82
75414;BME280;64758;52.122;5.404;2022-11-02T02:55:57;101553.03;;;10.05;94.70
75414;BME280;64758;52.122;5.404;2022-11-02T02:58:28;101536.78;;;10.08;95.08
75414;BME280;64758;52.122;5.404;2022-11-02T03:00:56;101558.34;;;10.13;94.45
75414;BME280;64758;52.122;5.404;2022-11-02T03:03:26;101554.38;;;10.16;94.95
75414;BME280;64758;52.122;5.404;2022-11-02T03:11:30;101553.38;;;10.33;94.70
75414;BME280;64758;52.122;5.404;2022-11-02T03:14:13;101544.56;;;10.33;94.09
75414;BME280;64758;52.122;5.404;2022-11-02T03:17:02;101549.06;;;10.40;94.17
75414;BME280;64758;52.122;5.404;2022-11-02T03:22:06;101534.91;;;10.48;93.83
75414;BME280;64758;52.122;5.404;2022-11-02T03:24:41;101535.44;;;10.51;92.87
75414;BME280;64758;52.122;5.404;2022-11-02T03:30:17;101537.09;;;10.52;92.68
75414;BME280;64758;52.122;5.404;2022-11-02T03:33:02;101539.41;;;10.55;92.62
75414;BME280;64758;52.122;5.404;2022-11-02T03:35:53;101548.03;;;10.57;92.33
75414;BME280;64758;52.122;5.404;2022-11-02T03:38:24;101543.53;;;10.58;92.07
75414;BME280;64758;52.122;5.404;2022-11-02T03:40:54;101559.13;;;10.61;91.98
75414;BME280;64758;52.122;5.404;2022-11-02T03:43:22;101558.66;;;10.65;91.59
75414;BME280;64758;52.122;5.404;2022-11-02T03:45:54;101558.66;;;10.65;92.00
75414;BME280;64758;52.122;5.404;2022-11-02T03:48:25;101557.13;;;10.71;91.93
75414;BME280;64758;52.122;5.404;2022-11-02T03:50:57;101554.31;;;10.72;91.47
75414;BME280;64758;52.122;5.404;2022-11-02T03:53:38;101569.94;;;10.75;91.23
75414;BME280;64758;52.122;5.404;2022-11-02T03:56:12;101565.59;;;10.82;90.28
75414;BME280;64758;52.122;5.404;2022-11-02T03:58:41;101566.25;;;10.84;89.81
75414;BME280;64758;52.122;5.404;2022-11-02T04:01:08;101572.88;;;10.88;89.12
75414;BME280;64758;52.122;5.404;2022-11-02T04:03:40;101577.34;;;10.96;90.11
75414;BME280;64758;52.122;5.404;2022-11-02T04:06:08;101581.50;;;10.98;89.14
75414;BME280;64758;52.122;5.404;2022-11-02T04:08:36;101579.16;;;11.03;88.59
75414;BME280;64758;52.122;5.404;2022-11-02T04:11:05;101576.16;;;11.06;88.73
75414;BME280;64758;52.122;5.404;2022-11-02T04:13:50;101583.78;;;11.09;88.10
75414;BME280;64758;52.122;5.404;2022-11-02T04:16:35;101583.78;;;11.09;88.60
75414;BME280;64758;52.122;5.404;2022-11-02T04:19:01;101602.06;;;11.12;87.38
75414;BME280;64758;52.122;5.404;2022-11-02T04:21:47;101593.88;;;11.22;88.00
75414;BME280;64758;52.122;5.404;2022-11-02T04:24:32;101608.16;;;11.21;87.99
75414;BME280;64758;52.122;5.404;2022-11-02T04:27:16;101611.31;;;11.24;87.86
75414;BME280;64758;52.122;5.404;2022-11-02T04:29:47;101616.81;;;11.23;88.27
75414;BME280;64758;52.122;5.404;2022-11-02T04:32:13;101619.47;;;11.23;88.06
75414;BME280;64758;52.122;5.404;2022-11-02T04:34:40;101637.59;;;11.27;87.52
75414;BME280;64758;52.122;5.404;2022-11-02T04:37:06;101645.03;;;11.32;88.01
75414;BME280;64758;52.122;5.404;2022-11-02T04:39:52;101653.19;;;11.30;88.44
75414;BME280;64758;52.122;5.404;2022-11-02T04:42:19;101647.22;;;11.28;88.46
75414;BME280;64758;52.122;5.404;2022-11-02T04:44:45;101670.63;;;11.33;87.59
75414;BME280;64758;52.122;5.404;2022-11-02T04:47:12;101661.66;;;11.34;86.75
75414;BME280;64758;52.122;5.404;2022-11-02T04:49:38;101673.78;;;11.36;87.80
75414;BME280;64758;52.122;5.404;2022-11-02T04:52:05;101672.59;;;11.38;86.21
75414;BME280;64758;52.122;5.404;2022-11-02T04:54:31;101660.16;;;11.39;86.90
75414;BME280;64758;52.122;5.404;2022-11-02T04:56:58;101668.78;;;11.41;86.57
75414;BME280;64758;52.122;5.404;2022-11-02T04:59:25;101677.44;;;11.43;87.03
75414;BME280;64758;52.122;5.404;2022-11-02T05:01:51;101687.41;;;11.41;87.40
75414;BME280;64758;52.122;5.404;2022-11-02T05:04:18;101687.09;;;11.36;88.61
75414;BME280;64758;52.122;5.404;2022-11-02T05:06:44;101695.22;;;11.35;88.57
75414;BME280;64758;52.122;5.404;2022-11-02T05:09:11;101708.53;;;11.27;90.02
75414;BME280;64758;52.122;5.404;2022-11-02T05:11:37;101723.69;;;11.18;91.88
75414;BME280;64758;52.122;5.404;2022-11-02T05:14:03;101715.56;;;11.04;93.19
75414;BME280;64758;52.122;5.404;2022-11-02T05:16:30;101737.16;;;11.01;92.46
75414;BME280;64758;52.122;5.404;2022-11-02T05:18:56;101731.69;;;10.94;93.61
75414;BME280;64758;52.122;5.404;2022-11-02T05:21:23;101742.81;;;10.90;93.89
75414;BME280;64758;52.122;5.404;2022-11-02T05:23:49;101740.66;;;10.85;93.84
75414;BME280;64758;52.122;5.404;2022-11-02T05:26:16;101734.81;;;10.82;94.24
75414;BME280;64758;52.122;5.404;2022-11-02T05:28:42;101748.78;;;10.84;95.06
75414;BME280;64758;52.122;5.404;2022-11-02T05:31:09;101754.59;;;10.79;94.71
75414;BME280;64758;52.122;5.404;2022-11-02T05:33:35;101754.75;;;10.78;94.41
75414;BME280;64758;52.122;5.404;2022-11-02T05:36:02;101765.06;;;10.73;94.63
75414;BME280;64758;52.122;5.404;2022-11-02T05:38:29;101748.78;;;10.68;94.48
75414;BME280;64758;52.122;5.404;2022-11-02T05:40:57;101756.59;;;10.69;94.54
75414;BME280;64758;52.122;5.404;2022-11-02T05:43:25;101760.25;;;10.68;94.53
75414;BME280;64758;52.122;5.404;2022-11-02T05:46:01;101758.72;;;10.66;94.14
75414;BME280;64758;52.122;5.404;2022-11-02T05:48:30;101772.00;;;10.66;94.82
75414;BME280;64758;52.122;5.404;2022-11-02T05:50:59;101767.88;;;10.63;94.71
75414;BME280;64758;52.122;5.404;2022-11-02T05:53:27;101764.38;;;10.63;95.22
75414;BME280;64758;52.122;5.404;2022-11-02T05:55:57;101784.63;;;10.64;94.79
75414;BME280;64758;52.122;5.404;2022-11-02T05:58:25;101786.16;;;10.66;94.55
75414;BME280;64758;52.122;5.404;2022-11-02T06:00:51;101791.28;;;10.68;94.67
75414;BME280;64758;52.122;5.404;2022-11-02T06:03:18;101792.63;;;10.72;94.58
75414;BME280;64758;52.122;5.404;2022-11-02T06:05:45;101794.47;;;10.71;94.34
75414;BME280;64758;52.122;5.404;2022-11-02T06:08:12;101800.78;;;10.70;94.58
75414;BME280;64758;52.122;5.404;2022-11-02T06:10:38;101805.75;;;10.73;93.17
75414;BME280;64758;52.122;5.404;2022-11-02T06:13:08;101817.19;;;10.74;93.86
75414;BME280;64758;52.122;5.404;2022-11-02T06:15:35;101813.06;;;10.71;93.62
75414;BME280;64758;52.122;5.404;2022-11-02T06:18:01;101817.03;;;10.67;93.66
75414;BME280;64758;52.122;5.404;2022-11-02T06:20:28;101826.00;;;10.66;93.70
75414;BME280;64758;52.122;5.404;2022-11-02T06:22:54;101824.66;;;10.62;93.37
75414;BME280;64758;52.122;5.404;2022-11-02T06:25:20;101838.75;;;10.63;93.51
75414;BME280;64758;52.122;5.404;2022-11-02T06:27:54;101831.97;;;10.60;93.19
75414;BME280;64758;52.122;5.404;2022-11-02T06:30:22;101840.94;;;10.59;92.81
75414;BME280;64758;52.122;5.404;2022-11-02T06:32:51;101840.59;;;10.62;92.91
75414;BME280;64758;52.122;5.404;2022-11-02T06:35:19;101852.03;;;10.63;92.41
75414;BME280;64758;52.122;5.404;2022-11-02T06:37:46;101855.88;;;10.60;93.17
75414;BME280;64758;52.122;5.404;2022-11-02T06:40:13;101871.81;;;10.60;92.87
75414;BME280;64758;52.122;5.404;2022-11-02T06:42:40;101868.31;;;10.60;92.46
75414;BME280;64758;52.122;5.404;2022-11-02T06:45:10;101873.94;;;10.57;92.99
75414;BME280;64758;52.122;5.404;2022-11-02T06:47:37;101880.44;;;10.54;92.01
75414;BME280;64758;52.122;5.404;2022-11-02T06:50:05;101886.22;;;10.58;91.94
75414;BME280;64758;52.122;5.404;2022-11-02T06:52:31;101885.75;;;10.54;92.04
75414;BME280;64758;52.122;5.404;2022-11-02T06:54:58;101905.31;;;10.53;92.86
75414;BME280;64758;52.122;5.404;2022-11-02T06:57:25;101902.81;;;10.52;92.73
75414;BME280;64758;52.122;5.404;2022-11-02T06:59:51;101919.41;;;10.54;91.86
75414;BME280;64758;52.122;5.404;2022-11-02T07:02:19;101925.22;;;10.49;91.73
75414;BME280;64758;52.122;5.404;2022-11-02T07:04:47;101940.84;;;10.52;91.55
75414;BME280;64758;52.122;5.404;2022-11-02T07:07:14;101941.84;;;10.51;92.33
75414;BME280;64758;52.122;5.404;2022-11-02T07:09:40;101950.94;;;10.49;91.09
75414;BME280;64758;52.122;5.404;2022-11-02T07:12:07;101961.13;;;10.53;91.00
75414;BME280;64758;52.122;5.404;2022-11-02T07:14:33;101961.25;;;10.52;90.58
75414;BME280;64758;52.122;5.404;2022-11-02T07:17:00;101968.09;;;10.54;90.22
75414;BME280;64758;52.122;5.404;2022-11-02T07:19:26;101977.56;;;10.57;90.12
75414;BME280;64758;52.122;5.404;2022-11-02T07:21:53;101982.19;;;10.55;91.15
75414;BME280;64758;52.122;5.404;2022-11-02T07:24:20;101994.78;;;10.53;91.01
75414;BME280;64758;52.122;5.404;2022-11-02T07:26:47;101995.03;;;10.59;90.60
75414;BME280;64758;52.122;5.404;2022-11-02T07:29:16;102000.00;;;10.62;89.94
75414;BME280;64758;52.122;5.404;2022-11-02T07:31:42;102002.19;;;10.67;90.24
75414;BME280;64758;52.122;5.404;2022-11-02T07:34:10;101999.38;;;10.68;89.40
75414;BME280;64758;52.122;5.404;2022-11-02T07:36:42;102005.00;;;10.65;88.30
75414;BME280;64758;52.122;5.404;2022-11-02T07:39:08;102008.34;;;10.67;88.54
75414;BME280;64758;52.122;5.404;2022-11-02T07:41:35;102004.34;;;10.63;89.05
75414;BME280;64758;52.122;5.404;2022-11-02T07:44:01;102013.13;;;10.64;88.55
75414;BME280;64758;52.122;5.404;2022-11-02T07:46:28;102021.28;;;10.62;89.00
75414;BME280;64758;52.122;5.404;2022-11-02T07:48:54;102023.63;;;10.65;87.73
75414;BME280;64758;52.122;5.404;2022-11-02T07:51:21;102032.41;;;10.66;88.66
75414;BME280;64758;52.122;5.404;2022-11-02T07:53:48;102040.22;;;10.67;87.84
75414;BME280;64758;52.122;5.404;2022-11-02T07:56:14;102052.34;;;10.70;86.64
75414;BME280;64758;52.122;5.404;2022-11-02T07:58:41;102043.25;;;10.72;86.90
75414;BME280;64758;52.122;5.404;2022-11-02T08:01:07;102056.06;;;10.77;86.18
75414;BME280;64758;52.122;5.404;2022-11-02T08:03:34;102057.72;;;10.78;86.53
75414;BME280;64758;52.122;5.404;2022-11-02T08:06:00;102054.06;;;10.79;86.67
75414;BME280;64758;52.122;5.404;2022-11-02T08:08:28;102061.25;;;10.86;86.54
75414;BME280;64758;52.122;5.404;2022-11-02T08:11:02;102058.44;;;10.88;86.43
75414;BME280;64758;52.122;5.404;2022-11-02T08:13:29;102071.59;;;10.89;86.57
75414;BME280;64758;52.122;5.404;2022-11-02T08:15:58;102065.28;;;10.90;86.04
75414;BME280;64758;52.122;5.404;2022-11-02T08:18:26;102073.63;;;10.95;86.35
75414;BME280;64758;52.122;5.404;2022-11-02T08:20:57;102075.78;;;11.00;85.91
75414;BME280;64758;52.122;5.404;2022-11-02T08:23:25;102075.31;;;11.04;86.10
75414;BME280;64758;52.122;5.404;2022-11-02T08:25:52;102081.00;;;11.09;85.16
75414;BME280;64758;52.122;5.404;2022-11-02T08:28:28;102080.69;;;11.12;85.59
75414;BME280;64758;52.122;5.404;2022-11-02T08:31:01;102093.47;;;11.17;84.89
75414;BME280;64758;52.122;5.404;2022-11-02T08:33:28;102098.03;;;11.24;85.43
75414;BME280;64758;52.122;5.404;2022-11-02T08:36:00;102106.13;;;11.23;85.12
75414;BME280;64758;52.122;5.404;2022-11-02T08:38:27;102101.34;;;11.26;84.22
75414;BME280;64758;52.122;5.404;2022-11-02T08:40:54;102094.22;;;11.35;84.50
75414;BME280;64758;52.122;5.404;2022-11-02T08:43:20;102100.41;;;11.35;84.06
75414;BME280;64758;52.122;5.404;2022-11-02T08:45:47;102101.41;;;11.42;84.47
75414;BME280;64758;52.122;5.404;2022-11-02T08:48:33;102091.94;;;11.47;84.12
75414;BME280;64758;52.122;5.404;2022-11-02T08:51:00;102092.81;;;11.56;84.00
75414;BME280;64758;52.122;5.404;2022-11-02T08:53:26;102104.50;;;11.63;83.52
75414;BME280;64758;52.122;5.404;2022-11-02T08:55:56;102106.34;;;11.70;83.68
75414;BME280;64758;52.122;5.404;2022-11-02T08:58:23;102106.84;;;11.74;82.79
75414;BME280;64758;52.122;5.404;2022-11-02T09:00:52;102100.38;;;11.76;83.06
75414;BME280;64758;52.122;5.404;2022-11-02T09:03:19;102103.88;;;11.85;83.68
75414;BME280;64758;52.122;5.404;2022-11-02T09:05:58;102113.88;;;11.91;82.67
75414;BME280;64758;52.122;5.404;2022-11-02T09:08:25;102116.75;;;11.97;81.98
75414;BME280;64758;52.122;5.404;2022-11-02T09:10:57;102118.06;;;12.01;82.33
75414;BME280;64758;52.122;5.404;2022-11-02T09:13:24;102122.75;;;12.07;82.25
75414;BME280;64758;52.122;5.404;2022-11-02T09:15:53;102121.56;;;12.10;82.56
75414;BME280;64758;52.122;5.404;2022-11-02T09:18:20;102126.75;;;12.11;82.41
75414;BME280;64758;52.122;5.404;2022-11-02T09:20:47;102127.91;;;12.17;82.33
75414;BME280;64758;52.122;5.404;2022-11-02T09:23:19;102120.56;;;12.19;82.24
75414;BME280;64758;52.122;5.404;2022-11-02T09:25:46;102127.09;;;12.24;81.69
75414;BME280;64758;52.122;5.404;2022-11-02T09:28:13;102136.25;;;12.30;81.25
75414;BME280;64758;52.122;5.404;2022-11-02T09:30:41;102143.75;;;12.34;81.79
75414;BME280;64758;52.122;5.404;2022-11-02T09:33:08;102141.44;;;12.39;80.15
75414;BME280;64758;52.122;5.404;2022-11-02T09:35:37;102149.75;;;12.44;80.68
75414;BME280;64758;52.122;5.404;2022-11-02T09:38:04;102151.56;;;12.52;80.55
75414;BME280;64758;52.122;5.404;2022-11-02T09:40:40;102163.09;;;12.60;80.14
75414;BME280;64758;52.122;5.404;2022-11-02T09:45:54;102162.22;;;12.75;80.24
75414;BME280;64758;52.122;5.404;2022-11-02T09:48:39;102174.91;;;12.81;79.75
75414;BME280;64758;52.122;5.404;2022-11-02T09:51:19;102178.56;;;12.80;79.39
75414;BME280;64758;52.122;5.404;2022-11-02T09:53:53;102184.56;;;12.82;79.64
75414;BME280;64758;52.122;5.404;2022-11-02T09:56:22;102179.91;;;12.92;79.21
75414;BME280;64758;52.122;5.404;2022-11-02T09:58:55;102180.41;;;12.96;78.09
75414;BME280;64758;52.122;5.404;2022-11-02T10:09:52;102173.34;;;13.19;77.38
75414;BME280;64758;52.122;5.404;2022-11-02T10:12:27;102180.03;;;13.23;77.01
75414;BME280;64758;52.122;5.404;2022-11-02T10:15:07;102182.34;;;13.26;75.99
75414;BME280;64758;52.122;5.404;2022-11-02T10:17:37;102186.84;;;13.33;76.17
75414;BME280;64758;52.122;5.404;2022-11-02T10:20:24;102185.53;;;13.29;76.13
75414;BME280;64758;52.122;5.404;2022-11-02T10:22:56;102188.31;;;13.36;75.14
75414;BME280;64758;52.122;5.404;2022-11-02T10:25:24;102193.69;;;13.28;76.87
75414;BME280;64758;52.122;5.404;2022-11-02T10:27:59;102202.53;;;13.36;75.88
75414;BME280;64758;52.122;5.404;2022-11-02T10:30:30;102203.50;;;13.43;75.50
75414;BME280;64758;52.122;5.404;2022-11-02T10:32:58;102193.63;;;13.52;75.29
75414;BME280;64758;52.122;5.404;2022-11-02T10:35:46;102188.88;;;13.70;75.09
75414;BME280;64758;52.122;5.404;2022-11-02T10:43:57;102190.34;;;13.80;74.54
75414;BME280;64758;52.122;5.404;2022-11-02T10:51:30;102217.47;;;13.99;72.01
75414;BME280;64758;52.122;5.404;2022-11-02T10:53:56;102204.63;;;13.95;72.89
75414;BME280;64758;52.122;5.404;2022-11-02T10:56:31;102219.31;;;13.99;73.63
75414;BME280;64758;52.122;5.404;2022-11-02T10:59:02;102210.28;;;14.00;72.47
75414;BME280;64758;52.122;5.404;2022-11-02T11:01:30;102213.31;;;13.97;72.81
75414;BME280;64758;52.122;5.404;2022-11-02T11:04:02;102216.13;;;13.96;72.17
75414;BME280;64758;52.122;5.404;2022-11-02T11:06:35;102223.16;;;13.97;72.30
75414;BME280;64758;52.122;5.404;2022-11-02T11:09:05;102215.66;;;13.92;72.71
75414;BME280;64758;52.122;5.404;2022-11-02T11:11:35;102222.91;;;14.06;72.65
75414;BME280;64758;52.122;5.404;2022-11-02T11:14:16;102245.81;;;14.08;71.42
75414;BME280;64758;52.122;5.404;2022-11-02T11:17:13;102236.03;;;13.93;73.92
75414;BME280;64758;52.122;5.404;2022-11-02T11:20:03;102231.06;;;14.20;74.15
75414;BME280;64758;52.122;5.404;2022-11-02T11:22:37;102238.34;;;14.34;72.63
75414;BME280;64758;52.122;5.404;2022-11-02T11:25:22;102233.22;;;14.25;72.79
75414;BME280;64758;52.122;5.404;2022-11-02T11:27:58;102234.50;;;14.29;71.79
75414;BME280;64758;52.122;5.404;2022-11-02T11:30:32;102233.22;;;14.25;71.89
75414;BME280;64758;52.122;5.404;2022-11-02T11:33:20;102236.78;;;14.17;71.04
75414;BME280;64758;52.122;5.404;2022-11-02T11:35:49;102217.22;;;14.17;71.46
75414;BME280;64758;52.122;5.404;2022-11-02T11:38:18;102219.19;;;14.23;71.45
75414;BME280;64758;52.122;5.404;2022-11-02T11:40:49;102223.13;;;14.35;71.60
75414;BME280;64758;52.122;5.404;2022-11-02T11:43:23;102216.75;;;14.36;69.09
75414;BME280;64758;52.122;5.404;2022-11-02T11:46:02;102216.75;;;14.36;70.14
75414;BME280;64758;52.122;5.404;2022-11-02T11:48:38;102220.75;;;14.40;70.80
75414;BME280;64758;52.122;5.404;2022-11-02T11:51:24;102215.03;;;14.43;68.50
75414;BME280;64758;52.122;5.404;2022-11-02T11:56:43;102206.72;;;14.38;68.79
75414;BME280;64758;52.122;5.404;2022-11-02T12:01:58;102210.91;;;14.63;69.13
75414;BME280;64758;52.122;5.404;2022-11-02T12:04:34;102222.25;;;14.65;68.82
75414;BME280;64758;52.122;5.404;2022-11-02T12:07:21;102219.88;;;14.70;67.95
75414;BME280;64758;52.122;5.404;2022-11-02T12:10:11;102213.34;;;14.72;69.09
75414;BME280;64758;52.122;5.404;2022-11-02T12:12:59;102206.06;;;14.81;67.42
75414;BME280;64758;52.122;5.404;2022-11-02T12:15:35;102221.47;;;15.01;68.17
75414;BME280;64758;52.122;5.404;2022-11-02T12:23:47;102213.13;;;14.96;67.74
75414;BME280;64758;52.122;5.404;2022-11-02T12:31:44;102214.22;;;14.87;67.37
75414;BME280;64758;52.122;5.404;2022-11-02T12:34:35;102189.28;;;14.72;65.24
75414;BME280;64758;52.122;5.404;2022-11-02T12:37:15;102186.03;;;14.77;64.55
75414;BME280;64758;52.122;5.404;2022-11-02T12:42:38;102187.91;;;14.91;63.99
75414;BME280;64758;52.122;5.404;2022-11-02T12:45:42;102193.63;;;14.88;65.04
75414;BME280;64758;52.122;5.404;2022-11-02T12:48:20;102181.91;;;14.89;64.05
75414;BME280;64758;52.122;5.404;2022-11-02T12:50:54;102187.84;;;14.99;64.17
75414;BME280;64758;52.122;5.404;2022-11-02T12:56:00;102181.47;;;14.85;63.71
75414;BME280;64758;52.122;5.404;2022-11-02T12:58:38;102189.50;;;14.85;63.55
75414;BME280;64758;52.122;5.404;2022-11-02T13:01:29;102178.94;;;14.84;64.21
75414;BME280;64758;52.122;5.404;2022-11-02T13:04:14;102192.69;;;14.81;62.39
75414;BME280;64758;52.122;5.404;2022-11-02T13:06:55;102177.91;;;14.70;63.58
75414;BME280;64758;52.122;5.404;2022-11-02T13:12:20;102174.81;;;14.81;62.19
75414;BME280;64758;52.122;5.404;2022-11-02T13:14:49;102172.13;;;14.81;61.57
75414;BME280;64758;52.122;5.404;2022-11-02T13:19:55;102167.59;;;14.82;61.11
75414;BME280;64758;52.122;5.404;2022-11-02T13:22:27;102164.63;;;14.77;60.77
75414;BME280;64758;52.122;5.404;2022-11-02T13:25:22;102173.97;;;14.81;60.97
75414;BME280;64758;52.122;5.404;2022-11-02T13:27:51;102159.22;;;14.85;62.29
75414;BME280;64758;52.122;5.404;2022-11-02T13:30:19;102169.25;;;14.83;59.88
75414;BME280;64758;52.122;5.404;2022-11-02T13:32:50;102159.94;;;14.79;58.44
75414;BME280;64758;52.122;5.404;2022-11-02T13:35:33;102144.81;;;14.71;58.93
75414;BME280;64758;52.122;5.404;2022-11-02T13:38:43;102141.22;;;14.79;59.98
75414;BME280;64758;52.122;5.404;2022-11-02T13:49:50;102143.69;;;15.46;60.78
75414;BME280;64758;52.122;5.404;2022-11-02T13:52:38;102141.69;;;15.83;59.85
75414;BME280;64758;52.122;5.404;2022-11-02T13:55:08;102130.13;;;16.18;58.20
75414;BME280;64758;52.122;5.404;2022-11-02T13:57:43;102132.19;;;16.16;56.70
75414;BME280;64758;52.122;5.404;2022-11-02T14:03:04;102127.06;;;16.00;57.39
75414;BME280;64758;52.122;5.404;2022-11-02T14:05:34;102144.59;;;15.53;59.47
75414;BME280;64758;52.122;5.404;2022-11-02T14:08:08;102142.84;;;15.02;60.53
75414;BME280;64758;52.122;5.404;2022-11-02T14:10:38;102143.50;;;14.67;62.28
75414;BME280;64758;52.122;5.404;2022-11-02T14:13:13;102136.88;;;14.41;63.24
75414;BME280;64758;52.122;5.404;2022-11-02T14:15:41;102141.44;;;14.32;64.63
75414;BME280;64758;52.122;5.404;2022-11-02T14:33:48;102126.88;;;14.35;66.86
75414;BME280;64758;52.122;5.404;2022-11-02T14:39:01;102123.19;;;14.13;68.32
75414;BME280;64758;52.122;5.404;2022-11-02T14:44:31;102103.25;;;14.24;68.21
75414;BME280;64758;52.122;5.404;2022-11-02T14:47:08;102094.94;;;14.19;69.10
75414;BME280;64758;52.122;5.404;2022-11-02T14:49:45;102103.50;;;14.14;68.93
75414;BME280;64758;52.122;5.404;2022-11-02T14:54:48;102089.88;;;14.01;69.71
75414;BME280;64758;52.122;5.404;2022-11-02T14:59:49;102101.22;;;14.03;69.18
75414;BME280;64758;52.122;5.404;2022-11-02T15:05:07;102089.69;;;14.03;69.55
75414;BME280;64758;52.122;5.404;2022-11-02T15:07:50;102085.63;;;14.07;70.65
75414;BME280;64758;52.122;5.404;2022-11-02T15:12:47;102090.63;;;13.88;69.95